sensor_id;sensor_type;location;lat;lon;timestamp;pressure;altitude;pressure_sealevel;temperature;humidity
2675;BME280;1347;42.122;24.746;2023-02-28T00:00:12;100079.50;;;10.70;81.42
2675;BME280;1347;42.122;24.746;2023-02-28T00:02:41;100084.56;;;10.68;81.88
2675;BME280;1347;42.122;24.746;2023-02-28T00:05:10;100090.13;;;10.72;81.69
2675;BME280;1347;42.122;24.746;2023-02-28T00:07:37;100093.41;;;10.61;81.96
2675;BME280;1347;42.122;24.746;2023-02-28T00:10:06;100091.91;;;10.64;81.97
2675;BME280;1347;42.122;24.746;2023-02-28T00:12:34;100091.56;;;10.65;81.86
2675;BME280;1347;42.122;24.746;2023-02-28T00:15:01;100098.97;;;10.65;81.70
2675;BME280;1347;42.122;24.746;2023-02-28T00:17:30;100101.03;;;10.68;81.39
2675;BME280;1347;42.122;24.746;2023-02-28T00:19:58;100090.41;;;10.66;81.49
2675;BME280;1347;42.122;24.746;2023-02-28T00:22:30;100090.31;;;10.63;81.27
2675;BME280;1347;42.122;24.746;2023-02-28T00:24:57;100093.94;;;10.67;81.11
2675;BME280;1347;42.122;24.746;2023-02-28T00:27:24;100090.75;;;10.65;80.87
2675;BME280;1347;42.122;24.746;2023-02-28T00:29:51;100085.72;;;10.67;81.42
2675;BME280;1347;42.122;24.746;2023-02-28T00:32:19;100089.31;;;10.71;80.97
2675;BME280;1347;42.122;24.746;2023-02-28T00:34:47;100082.25;;;10.70;80.96
2675;BME280;1347;42.122;24.746;2023-02-28T00:37:14;100075.16;;;10.69;80.96
2675;BME280;1347;42.122;24.746;2023-02-28T00:39:41;100073.50;;;10.64;81.30
2675;BME280;1347;42.122;24.746;2023-02-28T00:42:08;100077.13;;;10.68;81.42
2675;BME280;1347;42.122;24.746;2023-02-28T00:44:35;100078.00;;;10.73;81.49
2675;BME280;1347;42.122;24.746;2023-02-28T00:47:03;100090.56;;;10.74;81.49
2675;BME280;1347;42.122;24.746;2023-02-28T00:49:30;100092.06;;;10.71;81.85
2675;BME280;1347;42.122;24.746;2023-02-28T00:51:58;100092.34;;;10.66;81.54
2675;BME280;1347;42.122;24.746;2023-02-28T00:54:25;100083.38;;;10.69;81.64
2675;BME280;1347;42.122;24.746;2023-02-28T00:56:52;100090.13;;;10.72;81.47
2675;BME280;1347;42.122;24.746;2023-02-28T00:59:19;100085.72;;;10.67;81.61
2675;BME280;1347;42.122;24.746;2023-02-28T01:01:47;100095.09;;;10.66;81.68
2675;BME280;1347;42.122;24.746;2023-02-28T01:04:14;100102.41;;;10.62;81.74
2675;BME280;1347;42.122;24.746;2023-02-28T01:06:41;100101.81;;;10.53;82.39
2675;BME280;1347;42.122;24.746;2023-02-28T01:09:10;100106.31;;;9.58;83.57
2675;BME280;1347;42.122;24.746;2023-02-28T01:11:38;100095.06;;;9.19;84.72
2675;BME280;1347;42.122;24.746;2023-02-28T01:14:07;100109.31;;;9.13;85.23
2675;BME280;1347;42.122;24.746;2023-02-28T01:16:35;100113.81;;;8.81;85.61
2675;BME280;1347;42.122;24.746;2023-02-28T01:19:02;100117.69;;;8.80;86.20
2675;BME280;1347;42.122;24.746;2023-02-28T01:21:29;100116.88;;;8.67;86.80
2675;BME280;1347;42.122;24.746;2023-02-28T01:23:56;100122.13;;;8.84;86.44
2675;BME280;1347;42.122;24.746;2023-02-28T01:26:25;100120.53;;;8.71;87.22
2675;BME280;1347;42.122;24.746;2023-02-28T01:28:52;100111.41;;;8.79;87.16
2675;BME280;1347;42.122;24.746;2023-02-28T01:31:21;100113.91;;;8.97;86.97
2675;BME280;1347;42.122;24.746;2023-02-28T01:33:48;100113.47;;;8.95;88.44
2675;BME280;1347;42.122;24.746;2023-02-28T01:36:17;100118.69;;;9.00;88.37
2675;BME280;1347;42.122;24.746;2023-02-28T01:38:45;100133.03;;;8.97;88.89
2675;BME280;1347;42.122;24.746;2023-02-28T01:41:16;100128.94;;;9.03;88.08
2675;BME280;1347;42.122;24.746;2023-02-28T01:44:01;100140.44;;;8.96;87.85
2675;BME280;1347;42.122;24.746;2023-02-28T01:46:30;100154.91;;;8.48;89.97
2675;BME280;1347;42.122;24.746;2023-02-28T01:49:02;100156.16;;;8.51;90.51
2675;BME280;1347;42.122;24.746;2023-02-28T01:51:34;100166.88;;;8.43;91.18
2675;BME280;1347;42.122;24.746;2023-02-28T01:54:05;100166.06;;;8.43;91.29
2675;BME280;1347;42.122;24.746;2023-02-28T01:56:42;100163.66;;;8.41;92.04
2675;BME280;1347;42.122;24.746;2023-02-28T01:59:12;100170.41;;;8.44;92.16
2675;BME280;1347;42.122;24.746;2023-02-28T02:01:41;100171.88;;;8.54;91.86
2675;BME280;1347;42.122;24.746;2023-02-28T02:04:08;100181.22;;;8.53;91.97
2675;BME280;1347;42.122;24.746;2023-02-28T02:06:39;100189.41;;;8.53;91.72
2675;BME280;1347;42.122;24.746;2023-02-28T02:09:06;100186.88;;;8.47;92.48
2675;BME280;1347;42.122;24.746;2023-02-28T02:11:34;100188.03;;;8.59;92.19
2675;BME280;1347;42.122;24.746;2023-02-28T02:14:28;100186.22;;;8.51;92.46
2675;BME280;1347;42.122;24.746;2023-02-28T02:17:08;100188.38;;;8.57;92.01
2675;BME280;1347;42.122;24.746;2023-02-28T02:22:59;100189.31;;;8.61;91.97
2675;BME280;1347;42.122;24.746;2023-02-28T02:25:37;100180.50;;;8.56;92.16
2675;BME280;1347;42.122;24.746;2023-02-28T02:28:32;100186.41;;;8.45;92.62
2675;BME280;1347;42.122;24.746;2023-02-28T02:34:17;100203.59;;;8.34;92.40
2675;BME280;1347;42.122;24.746;2023-02-28T02:36:53;100204.09;;;8.27;93.28
2675;BME280;1347;42.122;24.746;2023-02-28T02:39:31;100197.38;;;8.25;94.06
2675;BME280;1347;42.122;24.746;2023-02-28T02:42:05;100197.97;;;8.30;94.46
2675;BME280;1347;42.122;24.746;2023-02-28T02:44:42;100201.44;;;8.39;94.08
2675;BME280;1347;42.122;24.746;2023-02-28T02:47:13;100204.66;;;8.41;94.64
2675;BME280;1347;42.122;24.746;2023-02-28T02:49:46;100204.06;;;8.48;94.93
2675;BME280;1347;42.122;24.746;2023-02-28T02:52:18;100210.25;;;8.57;95.37
2675;BME280;1347;42.122;24.746;2023-02-28T02:54:48;100217.66;;;8.69;95.57
2675;BME280;1347;42.122;24.746;2023-02-28T02:57:22;100218.34;;;8.78;96.23
2675;BME280;1347;42.122;24.746;2023-02-28T02:59:53;100226.91;;;8.76;96.93
2675;BME280;1347;42.122;24.746;2023-02-28T03:02:22;100221.22;;;8.81;98.27
2675;BME280;1347;42.122;24.746;2023-02-28T03:04:58;100234.28;;;8.76;99.62
2675;BME280;1347;42.122;24.746;2023-02-28T03:07:26;100232.63;;;8.83;99.13
2675;BME280;1347;42.122;24.746;2023-02-28T03:09:54;100236.34;;;8.79;100.00
2675;BME280;1347;42.122;24.746;2023-02-28T03:12:23;100241.69;;;8.75;100.00
2675;BME280;1347;42.122;24.746;2023-02-28T03:15:07;100235.78;;;8.73;100.00
2675;BME280;1347;42.122;24.746;2023-02-28T03:17:47;100249.00;;;8.71;100.00
2675;BME280;1347;42.122;24.746;2023-02-28T03:20:27;100250.78;;;8.67;100.00
2675;BME280;1347;42.122;24.746;2023-02-28T03:23:06;100249.91;;;8.63;100.00
2675;BME280;1347;42.122;24.746;2023-02-28T03:25:39;100252.72;;;8.67;100.00
2675;BME280;1347;42.122;24.746;2023-02-28T03:28:14;100250.00;;;8.67;100.00
2675;BME280;1347;42.122;24.746;2023-02-28T03:30:48;100263.22;;;8.65;100.00
2675;BME280;1347;42.122;24.746;2023-02-28T03:33:21;100257.28;;;8.63;100.00
2675;BME280;1347;42.122;24.746;2023-02-28T03:35:54;100260.34;;;8.61;100.00
2675;BME280;1347;42.122;24.746;2023-02-28T03:38:26;100250.00;;;8.67;100.00
2675;BME280;1347;42.122;24.746;2023-02-28T03:40:58;100252.06;;;8.70;100.00
2675;BME280;1347;42.122;24.746;2023-02-28T03:43:31;100258.53;;;8.65;100.00
2675;BME280;1347;42.122;24.746;2023-02-28T03:46:01;100256.81;;;8.61;100.00
2675;BME280;1347;42.122;24.746;2023-02-28T03:48:38;100258.09;;;8.63;100.00
2675;BME280;1347;42.122;24.746;2023-02-28T03:51:11;100259.91;;;8.59;100.00
2675;BME280;1347;42.122;24.746;2023-02-28T03:53:45;100273.88;;;8.58;100.00
2675;BME280;1347;42.122;24.746;2023-02-28T03:56:16;100282.56;;;8.60;100.00
2675;BME280;1347;42.122;24.746;2023-02-28T03:58:48;100271.97;;;8.58;100.00
2675;BME280;1347;42.122;24.746;2023-02-28T04:01:22;100287.44;;;8.54;100.00
2675;BME280;1347;42.122;24.746;2023-02-28T04:03:50;100289.91;;;8.47;100.00
2675;BME280;1347;42.122;24.746;2023-02-28T04:06:22;100288.31;;;8.46;100.00
2675;BME280;1347;42.122;24.746;2023-02-28T04:08:50;100292.97;;;8.45;100.00
2675;BME280;1347;42.122;24.746;2023-02-28T04:11:23;100294.72;;;8.50;100.00
2675;BME280;1347;42.122;24.746;2023-02-28T04:13:50;100301.16;;;8.45;100.00
2675;BME280;1347;42.122;24.746;2023-02-28T04:16:17;100309.75;;;8.56;100.00
2675;BME280;1347;42.122;24.746;2023-02-28T04:18:44;100320.34;;;8.58;100.00
2675;BME280;1347;42.122;24.746;2023-02-28T04:21:11;100320.44;;;8.49;100.00
2675;BME280;1347;42.122;24.746;2023-02-28T04:23:40;100313.59;;;8.43;100.00
2675;BME280;1347;42.122;24.746;2023-02-28T04:26:07;100316.00;;;8.57;100.00
2675;BME280;1347;42.122;24.746;2023-02-28T04:28:33;100311.25;;;8.54;100.00
2675;BME280;1347;42.122;24.746;2023-02-28T04:31:02;100301.53;;;8.44;100.00
2675;BME280;1347;42.122;24.746;2023-02-28T04:33:31;100315.63;;;8.46;100.00
2675;BME280;1347;42.122;24.746;2023-02-28T04:35:59;100306.78;;;8.49;100.00
2675;BME280;1347;42.122;24.746;2023-02-28T04:38:28;100303.72;;;8.51;100.00
2675;BME280;1347;42.122;24.746;2023-02-28T04:40:58;100308.38;;;8.50;100.00
2675;BME280;1347;42.122;24.746;2023-02-28T04:43:27;100314.56;;;8.59;100.00
2675;BME280;1347;42.122;24.746;2023-02-28T04:45:54;100302.81;;;8.59;100.00
2675;BME280;1347;42.122;24.746;2023-02-28T04:48:23;100317.28;;;8.59;100.00
2675;BME280;1347;42.122;24.746;2023-02-28T04:50:50;100320.00;;;8.59;100.00
2675;BME280;1347;42.122;24.746;2023-02-28T04:53:17;100312.47;;;8.56;100.00
2675;BME280;1347;42.122;24.746;2023-02-28T04:55:44;100304.22;;;8.65;100.00
2675;BME280;1347;42.122;24.746;2023-02-28T04:58:12;100304.22;;;8.65;100.00
2675;BME280;1347;42.122;24.746;2023-02-28T05:00:39;100315.81;;;8.62;100.00
2675;BME280;1347;42.122;24.746;2023-02-28T05:03:06;100335.41;;;8.64;100.00
2675;BME280;1347;42.122;24.746;2023-02-28T05:05:33;100328.53;;;8.58;100.00
2675;BME280;1347;42.122;24.746;2023-02-28T05:08:00;100335.66;;;8.71;100.00
2675;BME280;1347;42.122;24.746;2023-02-28T05:10:27;100341.13;;;8.71;100.00
2675;BME280;1347;42.122;24.746;2023-02-28T05:12:54;100344.06;;;8.66;100.00
2675;BME280;1347;42.122;24.746;2023-02-28T05:15:23;100341.31;;;8.66;100.00
2675;BME280;1347;42.122;24.746;2023-02-28T05:17:50;100346.34;;;8.64;100.00
2675;BME280;1347;42.122;24.746;2023-02-28T05:20:17;100344.84;;;8.66;100.00
2675;BME280;1347;42.122;24.746;2023-02-28T05:22:44;100347.25;;;8.68;100.00
2675;BME280;1347;42.122;24.746;2023-02-28T05:25:12;100351.13;;;8.67;100.00
2675;BME280;1347;42.122;24.746;2023-02-28T05:27:40;100355.94;;;8.70;100.00
2675;BME280;1347;42.122;24.746;2023-02-28T05:30:08;100360.13;;;8.67;100.00
2675;BME280;1347;42.122;24.746;2023-02-28T05:32:38;100367.06;;;8.65;100.00
2675;BME280;1347;42.122;24.746;2023-02-28T05:35:08;100372.88;;;8.63;100.00
2675;BME280;1347;42.122;24.746;2023-02-28T05:37:36;100377.06;;;8.61;100.00
2675;BME280;1347;42.122;24.746;2023-02-28T05:40:04;100378.44;;;8.67;100.00
2675;BME280;1347;42.122;24.746;2023-02-28T05:42:33;100383.25;;;8.70;100.00
2675;BME280;1347;42.122;24.746;2023-02-28T05:45:00;100378.78;;;8.65;100.00
2675;BME280;1347;42.122;24.746;2023-02-28T05:47:26;100381.41;;;8.62;100.00
2675;BME280;1347;42.122;24.746;2023-02-28T05:49:55;100381.97;;;8.67;100.00
2675;BME280;1347;42.122;24.746;2023-02-28T05:52:22;100384.38;;;8.69;100.00
2675;BME280;1347;42.122;24.746;2023-02-28T05:54:48;100387.59;;;8.71;100.00
2675;BME280;1347;42.122;24.746;2023-02-28T05:57:15;100393.53;;;8.73;100.00
2675;BME280;1347;42.122;24.746;2023-02-28T05:59:42;100390.09;;;8.76;100.00
2675;BME280;1347;42.122;24.746;2023-02-28T06:02:10;100395.75;;;8.92;100.00
2675;BME280;1347;42.122;24.746;2023-02-28T06:04:39;100400.09;;;8.93;100.00
2675;BME280;1347;42.122;24.746;2023-02-28T06:07:08;100403.50;;;8.90;100.00
2675;BME280;1347;42.122;24.746;2023-02-28T06:09:36;100404.53;;;8.97;100.00
2675;BME280;1347;42.122;24.746;2023-02-28T06:12:05;100405.13;;;9.03;100.00
2675;BME280;1347;42.122;24.746;2023-02-28T06:14:33;100410.59;;;9.03;100.00
2675;BME280;1347;42.122;24.746;2023-02-28T06:17:01;100408.22;;;9.01;100.00
2675;BME280;1347;42.122;24.746;2023-02-28T06:19:28;100409.16;;;9.17;100.00
2675;BME280;1347;42.122;24.746;2023-02-28T06:21:55;100408.97;;;9.22;100.00
2675;BME280;1347;42.122;24.746;2023-02-28T06:24:25;100417.81;;;9.19;100.00
2675;BME280;1347;42.122;24.746;2023-02-28T06:26:54;100413.50;;;9.18;100.00
2675;BME280;1347;42.122;24.746;2023-02-28T06:29:21;100409.38;;;9.12;100.00
2675;BME280;1347;42.122;24.746;2023-02-28T06:31:48;100412.97;;;9.25;100.00
2675;BME280;1347;42.122;24.746;2023-02-28T06:34:16;100407.25;;;9.30;100.00
2675;BME280;1347;42.122;24.746;2023-02-28T06:36:43;100419.59;;;9.36;99.23
2675;BME280;1347;42.122;24.746;2023-02-28T06:39:10;100414.78;;;9.33;100.00
2675;BME280;1347;42.122;24.746;2023-02-28T06:41:38;100416.50;;;9.38;100.00
2675;BME280;1347;42.122;24.746;2023-02-28T06:44:11;100415.03;;;9.52;99.15
2675;BME280;1347;42.122;24.746;2023-02-28T06:46:39;100412.88;;;9.46;100.00
2675;BME280;1347;42.122;24.746;2023-02-28T06:49:06;100410.47;;;9.44;99.55
2675;BME280;1347;42.122;24.746;2023-02-28T06:51:35;100406.59;;;9.45;98.47
2675;BME280;1347;42.122;24.746;2023-02-28T06:54:03;100420.63;;;9.44;99.60
2675;BME280;1347;42.122;24.746;2023-02-28T06:56:30;100414.69;;;9.42;99.85
2675;BME280;1347;42.122;24.746;2023-02-28T06:58:58;100426.09;;;9.44;98.87
2675;BME280;1347;42.122;24.746;2023-02-28T07:01:25;100423.22;;;9.40;99.50
2675;BME280;1347;42.122;24.746;2023-02-28T07:03:53;100424.19;;;9.56;98.83
2675;BME280;1347;42.122;24.746;2023-02-28T07:06:21;100426.56;;;9.58;98.55
2675;BME280;1347;42.122;24.746;2023-02-28T07:08:49;100430.53;;;9.48;99.06
2675;BME280;1347;42.122;24.746;2023-02-28T07:11:16;100436.38;;;9.59;97.48
2675;BME280;1347;42.122;24.746;2023-02-28T07:13:43;100427.03;;;9.72;97.94
2675;BME280;1347;42.122;24.746;2023-02-28T07:16:11;100432.63;;;9.64;97.70
2675;BME280;1347;42.122;24.746;2023-02-28T07:18:39;100432.84;;;9.58;96.69
2675;BME280;1347;42.122;24.746;2023-02-28T07:21:07;100439.44;;;9.57;98.24
2675;BME280;1347;42.122;24.746;2023-02-28T07:23:35;100436.94;;;9.52;98.04
2675;BME280;1347;42.122;24.746;2023-02-28T07:26:04;100437.75;;;9.53;97.30
2675;BME280;1347;42.122;24.746;2023-02-28T07:28:31;100440.59;;;9.56;97.67
2675;BME280;1347;42.122;24.746;2023-02-28T07:31:03;100445.72;;;9.58;97.28
2675;BME280;1347;42.122;24.746;2023-02-28T07:33:32;100448.94;;;9.60;96.81
2675;BME280;1347;42.122;24.746;2023-02-28T07:36:03;100451.09;;;9.54;97.47
2675;BME280;1347;42.122;24.746;2023-02-28T07:38:30;100453.84;;;9.54;97.33
2675;BME280;1347;42.122;24.746;2023-02-28T07:40:59;100449.81;;;9.52;97.57
2675;BME280;1347;42.122;24.746;2023-02-28T07:43:26;100445.63;;;9.54;98.06
2675;BME280;1347;42.122;24.746;2023-02-28T07:45:53;100443.22;;;9.77;96.64
2675;BME280;1347;42.122;24.746;2023-02-28T07:48:20;100436.97;;;9.89;95.99
2675;BME280;1347;42.122;24.746;2023-02-28T07:50:55;100437.53;;;9.70;96.32
2675;BME280;1347;42.122;24.746;2023-02-28T07:53:22;100451.34;;;9.74;96.28
2675;BME280;1347;42.122;24.746;2023-02-28T07:55:49;100452.06;;;9.38;97.96
2675;BME280;1347;42.122;24.746;2023-02-28T07:58:16;100464.53;;;9.59;97.99
2675;BME280;1347;42.122;24.746;2023-02-28T08:00:42;100456.94;;;9.65;98.14
2675;BME280;1347;42.122;24.746;2023-02-28T08:03:11;100455.69;;;9.75;97.02
2675;BME280;1347;42.122;24.746;2023-02-28T08:05:38;100454.44;;;9.96;96.77
2675;BME280;1347;42.122;24.746;2023-02-28T08:08:07;100461.84;;;9.84;96.82
2675;BME280;1347;42.122;24.746;2023-02-28T08:10:34;100459.34;;;9.91;96.49
2675;BME280;1347;42.122;24.746;2023-02-28T08:13:01;100466.75;;;9.90;95.99
2675;BME280;1347;42.122;24.746;2023-02-28T08:15:28;100464.81;;;9.91;96.08
2675;BME280;1347;42.122;24.746;2023-02-28T08:17:55;100466.97;;;9.97;95.88
2675;BME280;1347;42.122;24.746;2023-02-28T08:20:22;100468.47;;;9.83;96.25
2675;BME280;1347;42.122;24.746;2023-02-28T08:22:49;100470.97;;;9.76;96.07
2675;BME280;1347;42.122;24.746;2023-02-28T08:25:17;100463.56;;;9.76;96.76
2675;BME280;1347;42.122;24.746;2023-02-28T08:27:44;100455.44;;;9.55;98.07
2675;BME280;1347;42.122;24.746;2023-02-28T08:30:13;100457.19;;;9.84;97.50
2675;BME280;1347;42.122;24.746;2023-02-28T08:32:40;100451.38;;;9.86;96.68
2675;BME280;1347;42.122;24.746;2023-02-28T08:35:08;100449.72;;;9.60;97.10
2675;BME280;1347;42.122;24.746;2023-02-28T08:37:35;100448.25;;;9.63;97.63
2675;BME280;1347;42.122;24.746;2023-02-28T08:40:03;100450.22;;;9.87;96.45
2675;BME280;1347;42.122;24.746;2023-02-28T08:42:32;100459.22;;;10.12;95.58
2675;BME280;1347;42.122;24.746;2023-02-28T08:44:59;100469.97;;;10.17;94.54
2675;BME280;1347;42.122;24.746;2023-02-28T08:47:26;100461.06;;;9.95;96.02
2675;BME280;1347;42.122;24.746;2023-02-28T08:49:52;100471.22;;;10.19;95.37
2675;BME280;1347;42.122;24.746;2023-02-28T08:52:19;100469.16;;;10.16;95.48
2675;BME280;1347;42.122;24.746;2023-02-28T08:54:46;100466.88;;;10.06;94.85
2675;BME280;1347;42.122;24.746;2023-02-28T08:57:13;100470.34;;;10.27;94.51
2675;BME280;1347;42.122;24.746;2023-02-28T08:59:41;100470.56;;;10.22;94.85
2675;BME280;1347;42.122;24.746;2023-02-28T09:02:09;100469.91;;;10.65;93.35
2675;BME280;1347;42.122;24.746;2023-02-28T09:04:35;100468.16;;;10.85;91.65
2675;BME280;1347;42.122;24.746;2023-02-28T09:07:02;100469.63;;;10.83;92.36
2675;BME280;1347;42.122;24.746;2023-02-28T09:09:29;100467.41;;;10.60;91.66
2675;BME280;1347;42.122;24.746;2023-02-28T09:11:56;100473.59;;;10.57;92.65
2675;BME280;1347;42.122;24.746;2023-02-28T09:14:23;100472.88;;;10.60;92.32
2675;BME280;1347;42.122;24.746;2023-02-28T09:16:51;100467.47;;;10.88;91.42
2675;BME280;1347;42.122;24.746;2023-02-28T09:19:18;100463.59;;;10.77;91.82
2675;BME280;1347;42.122;24.746;2023-02-28T09:21:45;100459.91;;;10.85;90.62
2675;BME280;1347;42.122;24.746;2023-02-28T09:24:12;100459.03;;;10.69;91.62
2675;BME280;1347;42.122;24.746;2023-02-28T09:26:40;100457.50;;;10.56;92.43
2675;BME280;1347;42.122;24.746;2023-02-28T09:29:07;100455.72;;;11.03;90.68
2675;BME280;1347;42.122;24.746;2023-02-28T09:31:34;100450.84;;;11.40;89.56
2675;BME280;1347;42.122;24.746;2023-02-28T09:34:03;100455.34;;;11.76;87.40
2675;BME280;1347;42.122;24.746;2023-02-28T09:36:30;100445.34;;;12.00;86.37
2675;BME280;1347;42.122;24.746;2023-02-28T09:38:58;100444.78;;;11.94;85.16
2675;BME280;1347;42.122;24.746;2023-02-28T09:41:27;100444.47;;;12.31;84.70
2675;BME280;1347;42.122;24.746;2023-02-28T09:44:02;100451.31;;;12.56;83.00
2675;BME280;1347;42.122;24.746;2023-02-28T09:46:33;100459.41;;;12.14;83.84
2675;BME280;1347;42.122;24.746;2023-02-28T09:49:05;100458.88;;;12.08;84.66
2675;BME280;1347;42.122;24.746;2023-02-28T09:51:44;100457.97;;;11.73;84.97
2675;BME280;1347;42.122;24.746;2023-02-28T09:54:16;100452.44;;;11.41;86.79
2675;BME280;1347;42.122;24.746;2023-02-28T09:56:45;100452.88;;;11.28;87.15
2675;BME280;1347;42.122;24.746;2023-02-28T09:59:28;100447.88;;;10.90;89.36
2675;BME280;1347;42.122;24.746;2023-02-28T10:02:02;100430.84;;;10.96;89.60
2675;BME280;1347;42.122;24.746;2023-02-28T10:04:42;100418.50;;;10.90;90.02
2675;BME280;1347;42.122;24.746;2023-02-28T10:07:21;100420.81;;;11.32;88.17
2675;BME280;1347;42.122;24.746;2023-02-28T10:09:53;100410.13;;;11.27;88.10
2675;BME280;1347;42.122;24.746;2023-02-28T10:12:21;100420.91;;;11.35;88.22
2675;BME280;1347;42.122;24.746;2023-02-28T10:14:51;100423.25;;;11.49;87.69
2675;BME280;1347;42.122;24.746;2023-02-28T10:17:21;100418.28;;;11.39;87.07
2675;BME280;1347;42.122;24.746;2023-02-28T10:19:58;100420.31;;;11.42;87.44
2675;BME280;1347;42.122;24.746;2023-02-28T10:22:31;100415.09;;;11.37;88.23
2675;BME280;1347;42.122;24.746;2023-02-28T10:25:17;100409.56;;;11.21;88.18
2675;BME280;1347;42.122;24.746;2023-02-28T10:27:45;100405.38;;;11.12;88.26
2675;BME280;1347;42.122;24.746;2023-02-28T10:30:12;100410.47;;;10.42;90.92
2675;BME280;1347;42.122;24.746;2023-02-28T10:32:47;100411.13;;;10.51;91.84
2675;BME280;1347;42.122;24.746;2023-02-28T10:35:18;100405.78;;;10.70;90.82
2675;BME280;1347;42.122;24.746;2023-02-28T10:37:48;100405.41;;;10.56;91.48
2675;BME280;1347;42.122;24.746;2023-02-28T10:40:31;100409.25;;;10.27;92.36
2675;BME280;1347;42.122;24.746;2023-02-28T10:43:01;100413.56;;;10.16;93.82
2675;BME280;1347;42.122;24.746;2023-02-28T10:45:29;100410.13;;;10.31;93.29
2675;BME280;1347;42.122;24.746;2023-02-28T10:47:59;100406.78;;;10.50;92.77
2675;BME280;1347;42.122;24.746;2023-02-28T10:50:37;100400.56;;;10.37;93.20
2675;BME280;1347;42.122;24.746;2023-02-28T10:53:16;100405.00;;;10.29;93.20
2675;BME280;1347;42.122;24.746;2023-02-28T10:55:43;100413.34;;;10.33;93.24
2675;BME280;1347;42.122;24.746;2023-02-28T10:58:21;100399.53;;;10.17;93.77
2675;BME280;1347;42.122;24.746;2023-02-28T11:00:49;100397.72;;;9.97;94.73
2675;BME280;1347;42.122;24.746;2023-02-28T11:03:29;100386.88;;;10.25;94.09
2675;BME280;1347;42.122;24.746;2023-02-28T11:05:58;100396.09;;;10.32;93.67
2675;BME280;1347;42.122;24.746;2023-02-28T11:08:25;100384.78;;;10.10;94.47
2675;BME280;1347;42.122;24.746;2023-02-28T11:10:57;100391.78;;;9.95;95.38
2675;BME280;1347;42.122;24.746;2023-02-28T11:13:28;100387.78;;;10.05;95.31
2675;BME280;1347;42.122;24.746;2023-02-28T11:15:59;100378.97;;;10.11;94.37
2675;BME280;1347;42.122;24.746;2023-02-28T11:18:29;100381.97;;;9.94;94.96
2675;BME280;1347;42.122;24.746;2023-02-28T11:21:00;100387.56;;;9.85;95.91
2675;BME280;1347;42.122;24.746;2023-02-28T11:23:33;100382.53;;;9.87;96.12
2675;BME280;1347;42.122;24.746;2023-02-28T11:26:03;100378.09;;;9.71;96.52
2675;BME280;1347;42.122;24.746;2023-02-28T11:28:32;100381.88;;;9.66;97.57
2675;BME280;1347;42.122;24.746;2023-02-28T11:31:05;100384.25;;;9.43;99.31
2675;BME280;1347;42.122;24.746;2023-02-28T11:33:40;100382.66;;;9.42;100.00
2675;BME280;1347;42.122;24.746;2023-02-28T11:36:12;100382.50;;;9.27;100.00
2675;BME280;1347;42.122;24.746;2023-02-28T11:38:40;100379.84;;;9.06;100.00
2675;BME280;1347;42.122;24.746;2023-02-28T11:41:30;100379.63;;;9.11;100.00
2675;BME280;1347;42.122;24.746;2023-02-28T11:44:17;100370.50;;;8.95;100.00
2675;BME280;1347;42.122;24.746;2023-02-28T11:46:49;100369.50;;;9.11;100.00
2675;BME280;1347;42.122;24.746;2023-02-28T11:49:30;100362.81;;;8.88;100.00
2675;BME280;1347;42.122;24.746;2023-02-28T11:52:06;100381.16;;;8.88;100.00
2675;BME280;1347;42.122;24.746;2023-02-28T11:55:04;100367.00;;;8.85;100.00
2675;BME280;1347;42.122;24.746;2023-02-28T11:57:52;100367.78;;;8.74;100.00
2675;BME280;1347;42.122;24.746;2023-02-28T12:00:44;100363.94;;;8.75;100.00
2675;BME280;1347;42.122;24.746;2023-02-28T12:03:26;100362.25;;;8.82;100.00
2675;BME280;1347;42.122;24.746;2023-02-28T12:06:01;100363.06;;;8.62;100.00
2675;BME280;1347;42.122;24.746;2023-02-28T12:08:44;100351.44;;;8.53;100.00
2675;BME280;1347;42.122;24.746;2023-02-28T12:11:19;100354.28;;;8.57;100.00
2675;BME280;1347;42.122;24.746;2023-02-28T12:14:05;100353.06;;;8.66;100.00
2675;BME280;1347;42.122;24.746;2023-02-28T12:16:41;100359.66;;;8.65;100.00
2675;BME280;1347;42.122;24.746;2023-02-28T12:19:20;100359.88;;;8.60;100.00
2675;BME280;1347;42.122;24.746;2023-02-28T12:22:02;100355.75;;;8.54;100.00
2675;BME280;1347;42.122;24.746;2023-02-28T12:25:02;100358.34;;;8.51;100.00
2675;BME280;1347;42.122;24.746;2023-02-28T12:27:38;100361.00;;;8.59;100.00
2675;BME280;1347;42.122;24.746;2023-02-28T12:30:14;100360.44;;;8.54;100.00
2675;BME280;1347;42.122;24.746;2023-02-28T12:32:45;100349.28;;;8.59;100.00
2675;BME280;1347;42.122;24.746;2023-02-28T12:35:16;100347.44;;;8.51;100.00
2675;BME280;1347;42.122;24.746;2023-02-28T12:37:50;100345.50;;;8.51;100.00
2675;BME280;1347;42.122;24.746;2023-02-28T12:40:22;100345.09;;;8.40;100.00
2675;BME280;1347;42.122;24.746;2023-02-28T12:42:55;100348.03;;;8.35;100.00
2675;BME280;1347;42.122;24.746;2023-02-28T12:45:24;100341.50;;;8.48;100.00
2675;BME280;1347;42.122;24.746;2023-02-28T12:47:57;100333.75;;;8.51;100.00
2675;BME280;1347;42.122;24.746;2023-02-28T12:50:27;100334.66;;;8.42;100.00
2675;BME280;1347;42.122;24.746;2023-02-28T12:53:00;100341.56;;;8.40;100.00
2675;BME280;1347;42.122;24.746;2023-02-28T12:55:35;100333.16;;;8.45;100.00
2675;BME280;1347;42.122;24.746;2023-02-28T12:58:10;100337.28;;;8.51;100.00
2675;BME280;1347;42.122;24.746;2023-02-28T13:00:52;100348.41;;;8.46;100.00
2675;BME280;1347;42.122;24.746;2023-02-28T13:03:46;100334.66;;;8.42;100.00
2675;BME280;1347;42.122;24.746;2023-02-28T13:06:27;100337.06;;;8.44;100.00
2675;BME280;1347;42.122;24.746;2023-02-28T13:09:08;100336.75;;;8.37;100.00
2675;BME280;1347;42.122;24.746;2023-02-28T13:11:42;100333.56;;;8.35;100.00
2675;BME280;1347;42.122;24.746;2023-02-28T13:14:22;100335.16;;;8.36;100.00
2675;BME280;1347;42.122;24.746;2023-02-28T13:17:01;100336.19;;;8.31;100.00
2675;BME280;1347;42.122;24.746;2023-02-28T13:19:31;100333.28;;;8.28;100.00
2675;BME280;1347;42.122;24.746;2023-02-28T13:21:59;100327.16;;;8.31;100.00
2675;BME280;1347;42.122;24.746;2023-02-28T13:24:42;100329.75;;;8.27;100.00
2675;BME280;1347;42.122;24.746;2023-02-28T13:27:35;100339.72;;;8.32;100.00